createdAt,value
2022-12-03T00:02:24.332Z,11.77
2022-12-03T00:04:51.901Z,12.00
2022-12-03T00:07:19.360Z,12.07
2022-12-03T00:09:46.580Z,12.87
2022-12-03T00:12:13.840Z,12.23
2022-12-03T00:14:52.497Z,11.10
2022-12-03T00:17:19.724Z,11.63
2022-12-03T00:19:46.941Z,12.00
2022-12-03T00:22:14.228Z,11.87
2022-12-03T00:24:41.495Z,10.60
2022-12-03T00:27:08.703Z,12.37
2022-12-03T00:29:36.006Z,11.00
2022-12-03T00:32:03.332Z,11.50
2022-12-03T00:34:30.577Z,11.47
2022-12-03T00:36:57.811Z,12.57
2022-12-03T00:39:25.042Z,12.53
2022-12-03T00:41:52.232Z,11.83
2022-12-03T00:44:19.413Z,10.73
2022-12-03T00:46:46.701Z,10.63
2022-12-03T00:49:13.984Z,12.90
2022-12-03T00:51:41.295Z,12.83
2022-12-03T00:54:08.465Z,11.90
2022-12-03T00:56:35.665Z,11.73
2022-12-03T00:59:02.904Z,13.97
2022-12-03T01:01:30.209Z,13.13
2022-12-03T01:03:57.509Z,13.83
2022-12-03T01:06:24.745Z,13.10
2022-12-03T01:08:51.960Z,12.80
2022-12-03T01:11:37.769Z,11.90
2022-12-03T01:14:06.826Z,15.57
2022-12-03T01:16:34.190Z,13.57
2022-12-03T01:19:01.552Z,11.13
2022-12-03T01:21:28.808Z,15.47
2022-12-03T01:23:56.473Z,12.93
2022-12-03T01:26:23.796Z,15.00
2022-12-03T01:28:51.509Z,12.57
2022-12-03T01:31:37.464Z,12.40
2022-12-03T01:34:05.019Z,11.43
2022-12-03T01:36:34.256Z,10.67
2022-12-03T01:39:02.521Z,11.07
2022-12-03T01:41:31.586Z,11.10
2022-12-03T01:43:59.368Z,11.20
2022-12-03T01:46:34.259Z,13.23
2022-12-03T01:49:01.635Z,14.00
2022-12-03T01:51:30.263Z,15.37
2022-12-03T01:53:59.166Z,14.00
2022-12-03T01:56:26.581Z,15.20
2022-12-03T01:58:53.840Z,12.73
2022-12-03T02:01:21.228Z,12.70
2022-12-03T02:03:48.559Z,11.40
2022-12-03T02:06:19.012Z,13.50
2022-12-03T02:08:47.439Z,11.97
2022-12-03T02:11:29.963Z,11.20
2022-12-03T02:14:02.172Z,12.77
2022-12-03T02:16:30.331Z,10.87
2022-12-03T02:18:58.579Z,11.07
2022-12-03T02:21:46.017Z,10.23
2022-12-03T02:24:32.173Z,10.10
2022-12-03T02:26:59.437Z,12.10
2022-12-03T02:29:27.291Z,11.17
2022-12-03T02:31:54.565Z,13.47
2022-12-03T02:34:42.912Z,11.07
2022-12-03T02:37:22.887Z,11.40
2022-12-03T02:39:56.684Z,11.73
2022-12-03T02:42:36.340Z,11.70
2022-12-03T02:45:12.434Z,10.77
2022-12-03T02:47:46.410Z,11.73
2022-12-03T02:50:17.562Z,10.20
2022-12-03T02:52:47.532Z,9.00
2022-12-03T02:55:16.735Z,9.80
2022-12-03T02:57:46.626Z,8.90
2022-12-03T03:00:14.608Z,9.57
2022-12-03T03:02:42.389Z,10.97
2022-12-03T03:05:12.070Z,10.83
2022-12-03T03:07:40.286Z,10.67
2022-12-03T03:10:11.500Z,11.03
2022-12-03T03:12:39.587Z,11.60
2022-12-03T03:15:09.131Z,10.70
2022-12-03T03:17:36.408Z,11.77
2022-12-03T03:20:05.818Z,14.27
2022-12-03T03:22:35.123Z,11.37
2022-12-03T03:25:03.515Z,11.50
2022-12-03T03:27:31.100Z,10.77
2022-12-03T03:29:59.401Z,12.00
2022-12-03T03:32:28.783Z,12.70
2022-12-03T03:34:56.793Z,12.13
2022-12-03T03:37:24.741Z,11.50
2022-12-03T03:39:52.224Z,11.73
2022-12-03T03:42:19.661Z,10.50
2022-12-03T03:44:48.223Z,10.63
2022-12-03T03:47:16.924Z,10.33
2022-12-03T03:49:44.348Z,10.60
2022-12-03T03:52:11.923Z,11.97
2022-12-03T03:54:39.937Z,11.80
2022-12-03T03:57:07.620Z,10.00
2022-12-03T03:59:34.956Z,11.37
2022-12-03T04:02:02.221Z,10.73
2022-12-03T04:04:33.357Z,10.70
2022-12-03T04:07:00.615Z,10.30
2022-12-03T04:09:27.779Z,10.30
2022-12-03T04:12:13.386Z,10.53
2022-12-03T04:14:40.567Z,11.20
2022-12-03T04:17:07.808Z,10.90
2022-12-03T04:19:34.983Z,10.27
2022-12-03T04:22:20.786Z,10.13
2022-12-03T04:24:48.436Z,11.00
2022-12-03T04:27:34.127Z,10.30
2022-12-03T04:30:01.365Z,9.40
2022-12-03T04:32:46.968Z,11.33
2022-12-03T04:35:32.816Z,10.63
2022-12-03T04:38:01.572Z,11.13
2022-12-03T04:40:47.048Z,12.47
2022-12-03T04:43:14.274Z,10.37
2022-12-03T04:45:41.497Z,10.20
2022-12-03T04:48:08.703Z,11.70
2022-12-03T04:50:35.887Z,10.47
2022-12-03T04:53:03.091Z,10.60
2022-12-03T04:55:30.311Z,10.60
2022-12-03T04:57:57.532Z,10.27
2022-12-03T05:00:24.754Z,11.23
2022-12-03T05:02:52.001Z,10.47
2022-12-03T05:05:19.391Z,10.87
2022-12-03T05:07:46.637Z,9.90
2022-12-03T05:10:13.992Z,8.97
2022-12-03T05:12:41.188Z,9.83
2022-12-03T05:15:08.644Z,10.07
2022-12-03T05:17:35.904Z,8.77
2022-12-03T05:20:21.599Z,9.70
2022-12-03T05:22:48.796Z,10.37
2022-12-03T05:25:16.059Z,9.93
2022-12-03T05:27:43.408Z,10.10
2022-12-03T05:30:10.964Z,10.50
2022-12-03T05:32:38.609Z,8.70
2022-12-03T05:35:06.207Z,8.67
2022-12-03T05:37:33.442Z,11.10
2022-12-03T05:40:00.656Z,10.13
2022-12-03T05:42:46.406Z,9.63
2022-12-03T05:45:13.683Z,10.27
2022-12-03T05:47:40.849Z,9.97
2022-12-03T05:50:08.445Z,9.90
2022-12-03T05:52:35.665Z,9.00
2022-12-03T05:55:02.923Z,9.30
2022-12-03T05:57:30.098Z,9.63
2022-12-03T05:59:57.299Z,10.27
2022-12-03T06:02:24.639Z,9.83
2022-12-03T06:04:52.381Z,9.60
2022-12-03T06:07:19.923Z,9.63
2022-12-03T06:09:47.173Z,10.87
2022-12-03T06:12:14.465Z,10.43
2022-12-03T06:14:41.743Z,10.17
2022-12-03T06:17:09.020Z,11.40
2022-12-03T06:19:36.315Z,12.73
2022-12-03T06:22:03.652Z,10.60
2022-12-03T06:24:30.939Z,11.70
2022-12-03T06:26:58.212Z,11.93
2022-12-03T06:29:25.383Z,11.93
2022-12-03T06:31:52.673Z,11.73
2022-12-03T06:34:19.948Z,11.73
2022-12-03T06:36:47.184Z,12.00
2022-12-03T06:39:14.543Z,11.37
2022-12-03T06:41:41.752Z,13.80
2022-12-03T06:44:09.023Z,14.97
2022-12-03T06:46:36.498Z,12.80
2022-12-03T06:49:03.894Z,11.77
2022-12-03T06:51:31.427Z,11.63
2022-12-03T06:53:58.911Z,11.97
2022-12-03T06:56:31.086Z,10.53
2022-12-03T06:59:01.768Z,10.63
2022-12-03T07:01:29.662Z,11.50
2022-12-03T07:03:56.914Z,14.47
2022-12-03T07:06:24.363Z,12.07
2022-12-03T07:08:51.587Z,12.47
2022-12-03T07:11:39.904Z,13.40
2022-12-03T07:14:08.821Z,13.30
2022-12-03T07:16:36.242Z,14.50
2022-12-03T07:19:05.153Z,13.77
2022-12-03T07:21:32.720Z,13.63
2022-12-03T07:23:59.929Z,14.10
2022-12-03T07:26:27.359Z,12.10
2022-12-03T07:28:54.719Z,11.60
2022-12-03T07:31:22.003Z,11.53
2022-12-03T07:33:49.256Z,11.30
2022-12-03T07:36:16.510Z,12.20
2022-12-03T07:38:44.029Z,12.17
2022-12-03T07:41:11.236Z,11.70
2022-12-03T07:43:38.441Z,12.07
2022-12-03T07:46:05.779Z,11.30
2022-12-03T07:48:33.080Z,12.57
2022-12-03T07:51:00.276Z,12.97
2022-12-03T07:53:27.475Z,12.70
2022-12-03T07:55:54.688Z,11.77
2022-12-03T07:58:21.875Z,11.53
2022-12-03T08:00:49.140Z,11.40
2022-12-03T08:03:16.420Z,11.17
2022-12-03T08:05:43.646Z,12.23
2022-12-03T08:08:10.946Z,11.40
2022-12-03T08:10:38.336Z,11.50
2022-12-03T08:13:13.132Z,11.37
2022-12-03T08:15:40.456Z,10.47
2022-12-03T08:18:22.112Z,11.00
2022-12-03T08:20:51.828Z,11.50
2022-12-03T08:23:21.392Z,10.83
2022-12-03T08:25:49.885Z,12.97
2022-12-03T08:28:20.312Z,13.20
2022-12-03T08:30:59.057Z,11.10
2022-12-03T08:33:35.978Z,11.00
2022-12-03T08:36:11.871Z,10.60
2022-12-03T08:38:39.087Z,11.80
2022-12-03T08:41:16.223Z,12.37
2022-12-03T08:43:43.992Z,9.83
2022-12-03T08:46:19.467Z,11.73
2022-12-03T08:48:49.414Z,12.00
2022-12-03T08:51:23.835Z,11.13
2022-12-03T08:54:03.911Z,13.00
2022-12-03T08:56:32.984Z,10.90
2022-12-03T08:59:15.547Z,11.53
2022-12-03T09:01:44.669Z,11.53
2022-12-03T09:04:44.463Z,11.30
2022-12-03T09:07:11.704Z,10.80
2022-12-03T09:09:39.796Z,10.93
2022-12-03T09:12:07.184Z,12.33
2022-12-03T09:14:34.393Z,10.57
2022-12-03T09:17:01.834Z,11.40
2022-12-03T09:19:31.191Z,11.77
2022-12-03T09:21:58.672Z,12.80
2022-12-03T09:24:25.924Z,11.47
2022-12-03T09:26:53.181Z,11.63
2022-12-03T09:29:20.435Z,11.40
2022-12-03T09:31:47.758Z,11.30
2022-12-03T09:34:15.697Z,10.43
2022-12-03T09:36:42.868Z,9.63
2022-12-03T09:39:10.175Z,10.27
2022-12-03T09:41:37.721Z,11.43
2022-12-03T09:44:05.836Z,11.00
2022-12-03T09:46:36.045Z,9.43
2022-12-03T09:49:06.597Z,9.87
2022-12-03T09:51:37.027Z,11.40
2022-12-03T09:54:06.688Z,10.30
2022-12-03T09:56:36.876Z,10.10
2022-12-03T09:59:12.850Z,9.93
2022-12-03T10:01:40.407Z,9.80
2022-12-03T10:04:08.194Z,9.90
2022-12-03T10:06:38.766Z,9.63
2022-12-03T10:09:13.541Z,9.10
2022-12-03T10:11:40.867Z,10.00
2022-12-03T10:14:11.472Z,10.00
2022-12-03T10:16:40.327Z,9.27
2022-12-03T10:19:24.295Z,9.40
2022-12-03T10:22:06.688Z,9.47
2022-12-03T10:24:35.443Z,8.77
2022-12-03T10:27:21.573Z,9.53
2022-12-03T10:29:57.246Z,10.90
2022-12-03T10:32:49.760Z,9.90
2022-12-03T10:35:36.951Z,9.53
2022-12-03T10:38:06.531Z,9.20
2022-12-03T10:40:39.453Z,9.93
2022-12-03T10:43:18.599Z,10.27
2022-12-03T10:45:50.353Z,10.30
2022-12-03T10:48:25.638Z,9.20
2022-12-03T10:51:07.103Z,9.53
2022-12-03T10:53:37.198Z,10.70
2022-12-03T10:56:07.631Z,11.80
2022-12-03T10:58:40.438Z,11.10
2022-12-03T11:01:16.635Z,11.37
2022-12-03T11:03:44.755Z,10.93
2022-12-03T11:06:20.233Z,10.80
2022-12-03T11:08:57.765Z,11.30
2022-12-03T11:11:29.572Z,12.57
2022-12-03T11:14:01.428Z,11.63
2022-12-03T11:16:40.836Z,11.90
2022-12-03T11:19:17.424Z,11.83
2022-12-03T11:22:06.404Z,11.43
2022-12-03T11:24:38.946Z,10.80
2022-12-03T11:27:19.251Z,9.97
2022-12-03T11:29:54.478Z,10.33
2022-12-03T11:32:40.516Z,10.10
2022-12-03T11:35:28.549Z,10.73
2022-12-03T11:38:15.750Z,9.83
2022-12-03T11:41:21.154Z,10.37
2022-12-03T11:43:56.945Z,10.80
2022-12-03T11:46:40.646Z,10.90
2022-12-03T11:49:37.824Z,10.90
2022-12-03T11:52:30.619Z,11.30
2022-12-03T11:55:05.664Z,12.03
2022-12-03T11:57:36.706Z,11.73
2022-12-03T12:00:07.309Z,11.90
2022-12-03T12:02:34.594Z,11.27
2022-12-03T12:05:20.048Z,12.90
2022-12-03T12:07:48.266Z,11.67
2022-12-03T12:10:55.856Z,11.73
2022-12-03T12:13:31.928Z,10.77
2022-12-03T12:16:01.839Z,12.37
2022-12-03T12:18:46.645Z,13.43
2022-12-03T12:21:48.201Z,10.40
2022-12-03T12:24:36.609Z,11.07
2022-12-03T12:27:09.936Z,10.47
2022-12-03T12:29:39.375Z,12.13
2022-12-03T12:32:09.346Z,13.10
2022-12-03T12:34:59.919Z,14.07
2022-12-03T12:37:33.311Z,14.10
2022-12-03T12:40:02.826Z,12.27
2022-12-03T12:42:37.598Z,11.73
2022-12-03T12:45:13.901Z,11.40
2022-12-03T12:48:01.339Z,11.83
2022-12-03T12:50:30.398Z,12.60
2022-12-03T12:53:21.872Z,12.03
2022-12-03T12:55:52.032Z,12.33
2022-12-03T12:58:20.194Z,12.27
2022-12-03T13:00:51.565Z,12.73
2022-12-03T13:03:22.054Z,13.10
2022-12-03T13:05:50.840Z,13.30
2022-12-03T13:08:30.788Z,13.47
2022-12-03T13:11:02.810Z,12.20
2022-12-03T13:13:31.519Z,12.00
2022-12-03T13:16:07.243Z,13.80
2022-12-03T13:18:39.541Z,12.57
2022-12-03T13:21:23.300Z,11.87
2022-12-03T13:24:00.332Z,10.87
2022-12-03T13:26:39.429Z,10.73
2022-12-03T13:29:14.980Z,10.50
2022-12-03T13:31:48.829Z,10.90
2022-12-03T13:34:28.117Z,11.77
2022-12-03T13:36:58.415Z,11.33
2022-12-03T13:39:36.926Z,10.90
2022-12-03T13:42:39.125Z,11.37
2022-12-03T13:45:37.483Z,11.17
2022-12-03T13:48:24.998Z,10.70
2022-12-03T13:50:53.278Z,11.00
2022-12-03T13:53:27.089Z,10.47
2022-12-03T13:56:00.429Z,10.43
2022-12-03T13:58:27.631Z,11.10
2022-12-03T14:00:54.941Z,11.10
2022-12-03T14:03:23.432Z,11.37
2022-12-03T14:05:50.751Z,11.77
2022-12-03T14:08:17.972Z,10.40
2022-12-03T14:10:45.280Z,11.00
2022-12-03T14:13:12.428Z,11.67
2022-12-03T14:15:39.603Z,11.93
2022-12-03T14:18:06.790Z,11.80
2022-12-03T14:20:35.058Z,11.10
2022-12-03T14:23:02.482Z,10.37
2022-12-03T14:25:29.867Z,10.00
2022-12-03T14:27:57.302Z,10.60
2022-12-03T14:30:24.651Z,11.17
2022-12-03T14:32:51.837Z,11.00
2022-12-03T14:35:19.175Z,10.27
2022-12-03T14:37:46.342Z,10.90
2022-12-03T14:40:19.568Z,11.03
2022-12-03T14:42:48.538Z,10.57
2022-12-03T14:45:15.780Z,12.00
2022-12-03T14:47:43.055Z,11.63
2022-12-03T14:50:14.288Z,11.17
2022-12-03T14:52:41.943Z,10.90
2022-12-03T14:55:09.775Z,10.67
2022-12-03T14:57:37.051Z,9.93
2022-12-03T15:00:06.152Z,12.27
2022-12-03T15:02:33.428Z,10.50
2022-12-03T15:05:00.665Z,11.50
2022-12-03T15:07:27.956Z,10.97
2022-12-03T15:09:55.434Z,11.30
2022-12-03T15:12:22.951Z,10.70
2022-12-03T15:14:50.183Z,11.87
2022-12-03T15:17:23.275Z,13.23
2022-12-03T15:19:55.713Z,11.73
2022-12-03T15:22:23.176Z,11.10
2022-12-03T15:24:50.371Z,11.40
2022-12-03T15:27:17.659Z,10.63
2022-12-03T15:29:44.847Z,10.93
2022-12-03T15:32:12.077Z,10.73
2022-12-03T15:34:39.371Z,10.07
2022-12-03T15:37:06.606Z,10.10
2022-12-03T15:39:35.739Z,11.37
2022-12-03T15:42:02.940Z,10.63
2022-12-03T15:44:30.161Z,10.90
2022-12-03T15:46:57.381Z,11.97
2022-12-03T15:49:24.614Z,10.67
2022-12-03T15:51:51.807Z,12.40
2022-12-03T15:54:19.000Z,12.57
2022-12-03T15:56:46.193Z,12.87
2022-12-03T15:59:13.475Z,12.50
2022-12-03T16:01:40.771Z,11.37
2022-12-03T16:04:08.096Z,10.37
2022-12-03T16:06:35.351Z,11.00
2022-12-03T16:09:02.564Z,13.10
2022-12-03T16:11:29.733Z,13.47
2022-12-03T16:13:56.997Z,13.43
2022-12-03T16:16:24.294Z,13.53
2022-12-03T16:18:51.594Z,12.70
2022-12-03T16:21:22.042Z,12.90
2022-12-03T16:23:53.601Z,11.67
2022-12-03T16:26:20.834Z,12.07
2022-12-03T16:28:48.033Z,10.90
2022-12-03T16:31:15.248Z,11.50
2022-12-03T16:33:42.508Z,10.80
2022-12-03T16:36:09.916Z,12.50
2022-12-03T16:38:37.245Z,11.80
2022-12-03T16:41:04.511Z,11.50
2022-12-03T16:43:35.656Z,12.33
2022-12-03T16:46:20.052Z,12.03
2022-12-03T16:48:48.531Z,11.67
2022-12-03T16:51:16.223Z,11.90
2022-12-03T16:53:43.495Z,11.87
2022-12-03T16:56:10.803Z,11.30
2022-12-03T16:58:38.024Z,12.70
2022-12-03T17:01:05.688Z,13.27
2022-12-03T17:03:34.241Z,13.37
2022-12-03T17:06:02.868Z,12.90
2022-12-03T17:08:30.464Z,12.97
2022-12-03T17:10:57.883Z,12.50
2022-12-03T17:13:25.183Z,11.30
2022-12-03T17:15:52.490Z,13.17
2022-12-03T17:18:19.785Z,11.23
2022-12-03T17:20:47.260Z,12.40
2022-12-03T17:23:14.531Z,12.50
2022-12-03T17:25:41.775Z,11.80
2022-12-03T17:28:08.953Z,11.87
2022-12-03T17:30:36.270Z,12.80
2022-12-03T17:33:03.742Z,12.70
2022-12-03T17:35:31.237Z,13.97
2022-12-03T17:37:58.505Z,12.30
2022-12-03T17:40:25.773Z,13.10
2022-12-03T17:42:53.077Z,13.13
2022-12-03T17:45:20.282Z,12.67
2022-12-03T17:47:47.518Z,12.43
2022-12-03T17:50:17.619Z,12.00
2022-12-03T17:52:44.816Z,12.47
2022-12-03T17:55:21.548Z,13.03
2022-12-03T17:57:55.236Z,11.77
2022-12-03T18:00:22.636Z,12.97
2022-12-03T18:02:49.839Z,13.43
2022-12-03T18:05:17.129Z,11.90
2022-12-03T18:07:44.400Z,13.03
2022-12-03T18:10:11.881Z,12.77
2022-12-03T18:12:39.149Z,13.10
2022-12-03T18:15:06.975Z,14.10
2022-12-03T18:17:34.138Z,14.43
2022-12-03T18:20:01.772Z,14.90
2022-12-03T18:22:29.077Z,13.07
2022-12-03T18:24:56.578Z,14.43
2022-12-03T18:27:24.255Z,13.80
2022-12-03T18:29:51.952Z,13.33
2022-12-03T18:32:28.454Z,13.50
2022-12-03T18:34:57.429Z,13.00
2022-12-03T18:37:29.539Z,12.30
2022-12-03T18:39:58.461Z,11.97
2022-12-03T18:42:26.288Z,11.17
2022-12-03T18:44:55.688Z,10.70
2022-12-03T18:47:26.607Z,12.20
2022-12-03T18:49:54.495Z,12.43
2022-12-03T18:52:23.191Z,13.80
2022-12-03T18:54:50.518Z,12.90
2022-12-03T18:57:17.991Z,11.83
2022-12-03T18:59:45.170Z,12.30
2022-12-03T19:02:38.959Z,13.00
2022-12-03T19:05:07.237Z,12.40
2022-12-03T19:07:34.674Z,11.43
2022-12-03T19:10:01.993Z,11.57
2022-12-03T19:12:29.841Z,10.43
2022-12-03T19:14:57.072Z,11.00
2022-12-03T19:17:24.339Z,11.23
2022-12-03T19:19:51.784Z,11.90
2022-12-03T19:22:19.370Z,10.93
2022-12-03T19:24:46.550Z,11.17
2022-12-03T19:27:13.971Z,12.07
2022-12-03T19:29:41.263Z,11.83
2022-12-03T19:32:09.130Z,11.40
2022-12-03T19:34:36.634Z,11.30
2022-12-03T19:37:03.947Z,11.13
2022-12-03T19:39:31.893Z,11.20
2022-12-03T19:41:59.324Z,12.23
2022-12-03T19:44:26.544Z,11.80
2022-12-03T19:46:54.200Z,11.80
2022-12-03T19:49:21.494Z,12.00
2022-12-03T19:51:49.109Z,11.70
2022-12-03T19:54:17.290Z,12.67
2022-12-03T19:56:44.631Z,13.50
2022-12-03T19:59:13.353Z,13.27
2022-12-03T20:01:43.046Z,12.17
2022-12-03T20:04:12.073Z,13.37
2022-12-03T20:06:40.081Z,12.77
2022-12-03T20:09:11.418Z,11.87
2022-12-03T20:11:40.026Z,14.07
2022-12-03T20:14:11.369Z,12.03
2022-12-03T20:16:38.608Z,12.00
2022-12-03T20:19:07.654Z,11.77
2022-12-03T20:21:37.262Z,12.20
2022-12-03T20:24:06.216Z,12.40
2022-12-03T20:26:34.096Z,12.10
2022-12-03T20:29:01.670Z,12.30
2022-12-03T20:31:31.300Z,11.10
2022-12-03T20:34:01.556Z,13.07
2022-12-03T20:36:30.688Z,13.00
2022-12-03T20:39:00.580Z,12.47
2022-12-03T20:41:28.561Z,13.50
2022-12-03T20:43:56.431Z,11.80
2022-12-03T20:46:29.349Z,11.80
2022-12-03T20:48:57.560Z,12.40
2022-12-03T20:51:28.156Z,12.60
2022-12-03T20:53:58.317Z,13.03
2022-12-03T20:56:34.771Z,13.87
2022-12-03T20:59:05.017Z,14.97
2022-12-03T21:01:32.760Z,15.60
2022-12-03T21:04:00.088Z,15.03
2022-12-03T21:06:30.058Z,16.43
2022-12-03T21:08:59.279Z,16.97
2022-12-03T21:11:29.912Z,16.10
2022-12-03T21:13:58.215Z,16.70
2022-12-03T21:16:52.049Z,14.90
2022-12-03T21:19:17.311Z,15.43
2022-12-03T21:21:44.520Z,15.30
2022-12-03T21:24:13.043Z,16.43
2022-12-03T21:26:41.120Z,16.60
2022-12-03T21:29:08.761Z,16.87
2022-12-03T21:31:37.885Z,14.40
2022-12-03T21:34:05.405Z,13.83
2022-12-03T21:36:32.693Z,13.50
2022-12-03T21:39:00.144Z,13.40
2022-12-03T21:41:27.364Z,13.87
2022-12-03T21:43:54.540Z,14.27
2022-12-03T21:47:10.098Z,14.17
2022-12-03T21:49:10.059Z,12.30
2022-12-03T21:51:37.316Z,13.60
2022-12-03T21:54:04.599Z,14.30
2022-12-03T21:56:33.100Z,14.83
2022-12-03T21:59:00.291Z,14.27
2022-12-03T22:01:27.782Z,13.20
2022-12-03T22:03:55.390Z,14.10
2022-12-03T22:06:23.044Z,12.47
2022-12-03T22:08:50.428Z,12.10
2022-12-03T22:11:20.708Z,11.70
2022-12-03T22:13:48.162Z,10.40
2022-12-03T22:16:20.648Z,10.90
2022-12-03T22:18:48.183Z,11.10
2022-12-03T22:21:18.664Z,10.60
2022-12-03T22:23:46.246Z,10.07
2022-12-03T22:26:15.797Z,11.83
2022-12-03T22:28:45.223Z,11.67
2022-12-03T22:31:12.888Z,9.40
2022-12-03T22:33:40.201Z,10.93
2022-12-03T22:36:19.568Z,11.50
2022-12-03T22:38:49.269Z,10.80
2022-12-03T22:41:17.362Z,11.70
2022-12-03T22:43:45.736Z,10.90
2022-12-03T22:46:13.516Z,11.33
2022-12-03T22:48:42.352Z,11.47
2022-12-03T22:51:20.508Z,12.10
2022-12-03T22:53:48.416Z,11.23
2022-12-03T22:56:17.344Z,11.67
2022-12-03T22:58:44.896Z,13.17
2022-12-03T23:01:47.459Z,12.97
2022-12-03T23:04:14.770Z,12.27
2022-12-03T23:06:43.548Z,12.60
2022-12-03T23:09:10.871Z,13.37
2022-12-03T23:11:38.356Z,14.73
2022-12-03T23:14:05.621Z,13.50
2022-12-03T23:16:33.966Z,14.60
2022-12-03T23:19:02.196Z,13.50
2022-12-03T23:21:32.565Z,14.30
2022-12-03T23:24:00.956Z,12.80
2022-12-03T23:26:29.028Z,14.07
2022-12-03T23:28:56.620Z,14.10
2022-12-03T23:31:31.641Z,12.97
2022-12-03T23:33:59.974Z,12.80
2022-12-03T23:36:29.538Z,13.53
2022-12-03T23:38:56.755Z,12.10
2022-12-03T23:41:24.964Z,13.20
2022-12-03T23:43:52.420Z,13.53
2022-12-03T23:46:25.899Z,13.60
2022-12-03T23:48:53.246Z,12.97
2022-12-03T23:51:25.007Z,14.30
2022-12-03T23:53:54.441Z,14.40
2022-12-03T23:56:25.706Z,15.40
2022-12-03T23:58:52.916Z,12.67
